sensor_id;sensor_type;location;lat;lon;timestamp;temperature;humidity
36800;DHT22;22752;51.960;5.886;2024-02-23T00:00:10;5.90;99.90
36800;DHT22;22752;51.960;5.886;2024-02-23T00:02:37;5.90;99.90
36800;DHT22;22752;51.960;5.886;2024-02-23T00:05:03;5.90;99.90
36800;DHT22;22752;51.960;5.886;2024-02-23T00:07:29;5.90;99.90
36800;DHT22;22752;51.960;5.886;2024-02-23T00:09:55;6.00;99.90
36800;DHT22;22752;51.960;5.886;2024-02-23T00:12:20;6.00;99.90
36800;DHT22;22752;51.960;5.886;2024-02-23T00:14:46;6.00;99.90
36800;DHT22;22752;51.960;5.886;2024-02-23T00:17:12;6.00;99.90
36800;DHT22;22752;51.960;5.886;2024-02-23T00:19:38;6.00;99.90
36800;DHT22;22752;51.960;5.886;2024-02-23T00:22:03;6.00;99.90
36800;DHT22;22752;51.960;5.886;2024-02-23T00:24:29;6.00;99.90
36800;DHT22;22752;51.960;5.886;2024-02-23T00:26:55;6.10;99.90
36800;DHT22;22752;51.960;5.886;2024-02-23T00:29:21;6.10;99.90
36800;DHT22;22752;51.960;5.886;2024-02-23T00:31:47;6.10;99.90
36800;DHT22;22752;51.960;5.886;2024-02-23T00:34:13;6.10;99.90
36800;DHT22;22752;51.960;5.886;2024-02-23T00:36:40;6.00;99.90
36800;DHT22;22752;51.960;5.886;2024-02-23T00:39:07;5.90;99.90
36800;DHT22;22752;51.960;5.886;2024-02-23T00:41:36;6.00;99.90
36800;DHT22;22752;51.960;5.886;2024-02-23T00:44:02;6.00;99.90
36800;DHT22;22752;51.960;5.886;2024-02-23T00:46:28;5.90;99.90
36800;DHT22;22752;51.960;5.886;2024-02-23T00:48:54;5.90;99.90
36800;DHT22;22752;51.960;5.886;2024-02-23T00:51:20;6.00;99.90
36800;DHT22;22752;51.960;5.886;2024-02-23T00:53:45;6.00;99.90
36800;DHT22;22752;51.960;5.886;2024-02-23T00:56:11;5.90;99.90
36800;DHT22;22752;51.960;5.886;2024-02-23T00:58:38;5.80;99.90
36800;DHT22;22752;51.960;5.886;2024-02-23T01:01:04;5.80;99.90
36800;DHT22;22752;51.960;5.886;2024-02-23T01:03:29;5.70;99.90
36800;DHT22;22752;51.960;5.886;2024-02-23T01:05:55;5.80;99.90
36800;DHT22;22752;51.960;5.886;2024-02-23T01:08:21;5.80;99.90
36800;DHT22;22752;51.960;5.886;2024-02-23T01:10:47;5.90;99.90
36800;DHT22;22752;51.960;5.886;2024-02-23T01:13:12;5.90;99.90
36800;DHT22;22752;51.960;5.886;2024-02-23T01:15:39;5.90;99.90
36800;DHT22;22752;51.960;5.886;2024-02-23T01:18:05;6.00;99.90
36800;DHT22;22752;51.960;5.886;2024-02-23T01:20:34;6.00;99.90
36800;DHT22;22752;51.960;5.886;2024-02-23T01:23:00;6.00;99.90
36800;DHT22;22752;51.960;5.886;2024-02-23T01:25:26;6.00;99.90
36800;DHT22;22752;51.960;5.886;2024-02-23T01:27:51;6.00;99.90
36800;DHT22;22752;51.960;5.886;2024-02-23T01:30:17;6.00;99.90
36800;DHT22;22752;51.960;5.886;2024-02-23T01:32:44;6.00;99.90
36800;DHT22;22752;51.960;5.886;2024-02-23T01:35:10;6.00;99.90
36800;DHT22;22752;51.960;5.886;2024-02-23T01:37:36;6.00;99.90
36800;DHT22;22752;51.960;5.886;2024-02-23T01:40:03;6.00;99.90
36800;DHT22;22752;51.960;5.886;2024-02-23T01:42:29;6.00;99.90
36800;DHT22;22752;51.960;5.886;2024-02-23T01:44:54;5.90;99.90
36800;DHT22;22752;51.960;5.886;2024-02-23T01:47:24;5.80;99.90
36800;DHT22;22752;51.960;5.886;2024-02-23T01:49:50;5.70;99.90
36800;DHT22;22752;51.960;5.886;2024-02-23T01:52:17;5.60;99.90
36800;DHT22;22752;51.960;5.886;2024-02-23T01:54:43;5.60;99.90
36800;DHT22;22752;51.960;5.886;2024-02-23T01:57:09;5.50;99.90
36800;DHT22;22752;51.960;5.886;2024-02-23T01:59:36;5.50;99.90
36800;DHT22;22752;51.960;5.886;2024-02-23T02:02:04;5.40;99.90
36800;DHT22;22752;51.960;5.886;2024-02-23T02:04:30;5.30;99.90
36800;DHT22;22752;51.960;5.886;2024-02-23T02:06:57;5.40;99.90
36800;DHT22;22752;51.960;5.886;2024-02-23T02:09:23;5.30;99.90
36800;DHT22;22752;51.960;5.886;2024-02-23T02:11:49;5.30;99.90
36800;DHT22;22752;51.960;5.886;2024-02-23T02:14:16;5.30;99.90
36800;DHT22;22752;51.960;5.886;2024-02-23T02:16:42;5.30;99.90
36800;DHT22;22752;51.960;5.886;2024-02-23T02:19:12;5.30;99.90
36800;DHT22;22752;51.960;5.886;2024-02-23T02:21:39;5.20;99.90
36800;DHT22;22752;51.960;5.886;2024-02-23T02:24:04;5.20;99.90
36800;DHT22;22752;51.960;5.886;2024-02-23T02:26:31;5.20;99.90
36800;DHT22;22752;51.960;5.886;2024-02-23T02:28:56;5.20;99.90
36800;DHT22;22752;51.960;5.886;2024-02-23T02:31:22;5.10;99.90
36800;DHT22;22752;51.960;5.886;2024-02-23T02:33:48;5.10;99.90
36800;DHT22;22752;51.960;5.886;2024-02-23T02:36:14;5.10;99.90
36800;DHT22;22752;51.960;5.886;2024-02-23T02:38:39;5.10;99.90
36800;DHT22;22752;51.960;5.886;2024-02-23T02:41:05;5.20;99.90
36800;DHT22;22752;51.960;5.886;2024-02-23T02:43:32;5.20;99.90
36800;DHT22;22752;51.960;5.886;2024-02-23T02:45:58;5.30;99.90
36800;DHT22;22752;51.960;5.886;2024-02-23T02:48:24;5.30;99.90
36800;DHT22;22752;51.960;5.886;2024-02-23T02:50:50;5.30;99.90
36800;DHT22;22752;51.960;5.886;2024-02-23T02:53:17;5.30;99.90
36800;DHT22;22752;51.960;5.886;2024-02-23T02:55:43;5.30;99.90
36800;DHT22;22752;51.960;5.886;2024-02-23T02:58:13;5.30;99.90
36800;DHT22;22752;51.960;5.886;2024-02-23T03:00:39;5.40;99.90
36800;DHT22;22752;51.960;5.886;2024-02-23T03:03:05;5.40;99.90
36800;DHT22;22752;51.960;5.886;2024-02-23T03:05:31;5.30;99.90
36800;DHT22;22752;51.960;5.886;2024-02-23T03:07:57;5.30;99.90
36800;DHT22;22752;51.960;5.886;2024-02-23T03:10:23;5.30;99.90
36800;DHT22;22752;51.960;5.886;2024-02-23T03:12:48;5.30;99.90
36800;DHT22;22752;51.960;5.886;2024-02-23T03:15:14;5.30;99.90
36800;DHT22;22752;51.960;5.886;2024-02-23T03:17:40;5.30;99.90
36800;DHT22;22752;51.960;5.886;2024-02-23T03:20:06;5.30;99.90
36800;DHT22;22752;51.960;5.886;2024-02-23T03:22:36;5.30;99.90
36800;DHT22;22752;51.960;5.886;2024-02-23T03:25:03;5.30;99.90
36800;DHT22;22752;51.960;5.886;2024-02-23T03:27:34;5.30;99.90
36800;DHT22;22752;51.960;5.886;2024-02-23T03:30:00;5.20;99.90
36800;DHT22;22752;51.960;5.886;2024-02-23T03:32:26;5.30;99.90
36800;DHT22;22752;51.960;5.886;2024-02-23T03:34:52;5.40;99.90
36800;DHT22;22752;51.960;5.886;2024-02-23T03:37:17;5.40;99.90
36800;DHT22;22752;51.960;5.886;2024-02-23T03:39:43;5.40;99.90
36800;DHT22;22752;51.960;5.886;2024-02-23T03:42:09;5.40;99.90
36800;DHT22;22752;51.960;5.886;2024-02-23T03:44:34;5.40;99.90
36800;DHT22;22752;51.960;5.886;2024-02-23T03:47:00;5.50;99.90
36800;DHT22;22752;51.960;5.886;2024-02-23T03:49:25;5.50;99.90
36800;DHT22;22752;51.960;5.886;2024-02-23T03:51:51;5.60;99.90
36800;DHT22;22752;51.960;5.886;2024-02-23T03:54:17;5.50;99.90
36800;DHT22;22752;51.960;5.886;2024-02-23T03:56:42;5.40;99.90
36800;DHT22;22752;51.960;5.886;2024-02-23T03:59:09;5.40;99.90
36800;DHT22;22752;51.960;5.886;2024-02-23T04:01:36;5.30;99.90
36800;DHT22;22752;51.960;5.886;2024-02-23T04:04:02;5.30;99.90
36800;DHT22;22752;51.960;5.886;2024-02-23T04:06:28;5.30;99.90
36800;DHT22;22752;51.960;5.886;2024-02-23T04:08:53;5.20;99.90
36800;DHT22;22752;51.960;5.886;2024-02-23T04:11:19;5.10;99.90
36800;DHT22;22752;51.960;5.886;2024-02-23T04:13:45;5.20;99.90
36800;DHT22;22752;51.960;5.886;2024-02-23T04:16:10;5.20;99.90
36800;DHT22;22752;51.960;5.886;2024-02-23T04:18:36;5.30;99.90
36800;DHT22;22752;51.960;5.886;2024-02-23T04:21:02;5.30;99.90
36800;DHT22;22752;51.960;5.886;2024-02-23T04:23:28;5.30;99.90
36800;DHT22;22752;51.960;5.886;2024-02-23T04:25:53;5.20;99.90
36800;DHT22;22752;51.960;5.886;2024-02-23T04:28:19;5.20;99.90
36800;DHT22;22752;51.960;5.886;2024-02-23T04:30:45;5.10;99.90
36800;DHT22;22752;51.960;5.886;2024-02-23T04:33:11;5.10;99.90
36800;DHT22;22752;51.960;5.886;2024-02-23T04:35:36;5.10;99.90
36800;DHT22;22752;51.960;5.886;2024-02-23T04:38:02;5.10;99.90
36800;DHT22;22752;51.960;5.886;2024-02-23T04:40:28;5.10;99.90
36800;DHT22;22752;51.960;5.886;2024-02-23T04:42:53;5.10;99.90
36800;DHT22;22752;51.960;5.886;2024-02-23T04:45:19;5.10;99.90
36800;DHT22;22752;51.960;5.886;2024-02-23T04:47:45;5.10;99.90
36800;DHT22;22752;51.960;5.886;2024-02-23T04:50:12;5.10;99.90
36800;DHT22;22752;51.960;5.886;2024-02-23T04:52:38;5.20;99.90
36800;DHT22;22752;51.960;5.886;2024-02-23T04:55:04;5.20;99.90
36800;DHT22;22752;51.960;5.886;2024-02-23T04:57:32;5.10;99.90
36800;DHT22;22752;51.960;5.886;2024-02-23T04:59:58;5.10;99.90
36800;DHT22;22752;51.960;5.886;2024-02-23T05:02:23;5.20;99.90
36800;DHT22;22752;51.960;5.886;2024-02-23T05:04:49;5.10;99.90
36800;DHT22;22752;51.960;5.886;2024-02-23T05:07:15;5.10;99.90
36800;DHT22;22752;51.960;5.886;2024-02-23T05:09:40;5.20;99.90
36800;DHT22;22752;51.960;5.886;2024-02-23T05:12:10;5.30;99.90
36800;DHT22;22752;51.960;5.886;2024-02-23T05:14:35;5.40;99.90
36800;DHT22;22752;51.960;5.886;2024-02-23T05:17:01;5.50;99.90
36800;DHT22;22752;51.960;5.886;2024-02-23T05:19:27;5.50;99.90
36800;DHT22;22752;51.960;5.886;2024-02-23T05:21:52;5.60;99.90
36800;DHT22;22752;51.960;5.886;2024-02-23T05:24:18;5.60;99.90
36800;DHT22;22752;51.960;5.886;2024-02-23T05:26:43;5.70;99.90
36800;DHT22;22752;51.960;5.886;2024-02-23T05:29:10;5.70;99.90
36800;DHT22;22752;51.960;5.886;2024-02-23T05:31:55;5.80;99.90
36800;DHT22;22752;51.960;5.886;2024-02-23T05:34:21;5.80;99.90
36800;DHT22;22752;51.960;5.886;2024-02-23T05:36:47;5.80;99.90
36800;DHT22;22752;51.960;5.886;2024-02-23T05:39:14;5.90;99.90
36800;DHT22;22752;51.960;5.886;2024-02-23T05:41:43;5.90;99.90
36800;DHT22;22752;51.960;5.886;2024-02-23T05:44:09;5.90;99.90
36800;DHT22;22752;51.960;5.886;2024-02-23T05:46:36;5.90;99.90
36800;DHT22;22752;51.960;5.886;2024-02-23T05:49:02;5.90;99.90
36800;DHT22;22752;51.960;5.886;2024-02-23T05:51:30;5.90;99.90
36800;DHT22;22752;51.960;5.886;2024-02-23T05:53:56;5.90;99.90
36800;DHT22;22752;51.960;5.886;2024-02-23T05:56:22;6.00;99.90
36800;DHT22;22752;51.960;5.886;2024-02-23T05:58:49;6.00;99.90
36800;DHT22;22752;51.960;5.886;2024-02-23T06:01:15;6.00;99.90
36800;DHT22;22752;51.960;5.886;2024-02-23T06:03:40;6.00;99.90
36800;DHT22;22752;51.960;5.886;2024-02-23T06:06:09;6.00;99.90
36800;DHT22;22752;51.960;5.886;2024-02-23T06:08:35;6.00;99.90
36800;DHT22;22752;51.960;5.886;2024-02-23T06:11:01;6.00;99.90
36800;DHT22;22752;51.960;5.886;2024-02-23T06:13:31;6.00;99.90
36800;DHT22;22752;51.960;5.886;2024-02-23T06:15:57;6.00;99.90
36800;DHT22;22752;51.960;5.886;2024-02-23T06:18:23;6.00;99.90
36800;DHT22;22752;51.960;5.886;2024-02-23T06:20:49;6.00;99.90
36800;DHT22;22752;51.960;5.886;2024-02-23T06:23:16;6.00;99.90
36800;DHT22;22752;51.960;5.886;2024-02-23T06:25:41;5.90;99.90
36800;DHT22;22752;51.960;5.886;2024-02-23T06:28:07;5.90;99.90
36800;DHT22;22752;51.960;5.886;2024-02-23T06:30:33;5.90;99.90
36800;DHT22;22752;51.960;5.886;2024-02-23T06:32:58;5.90;99.90
36800;DHT22;22752;51.960;5.886;2024-02-23T06:35:24;5.90;99.90
36800;DHT22;22752;51.960;5.886;2024-02-23T06:37:49;5.80;99.90
36800;DHT22;22752;51.960;5.886;2024-02-23T06:40:15;5.90;99.90
36800;DHT22;22752;51.960;5.886;2024-02-23T06:42:41;5.90;99.90
36800;DHT22;22752;51.960;5.886;2024-02-23T06:45:07;6.00;99.90
36800;DHT22;22752;51.960;5.886;2024-02-23T06:47:33;6.00;99.90
36800;DHT22;22752;51.960;5.886;2024-02-23T06:49:59;6.10;99.90
36800;DHT22;22752;51.960;5.886;2024-02-23T06:52:25;6.10;99.90
36800;DHT22;22752;51.960;5.886;2024-02-23T06:54:52;6.10;99.90
36800;DHT22;22752;51.960;5.886;2024-02-23T06:57:17;6.20;99.90
36800;DHT22;22752;51.960;5.886;2024-02-23T06:59:43;6.20;99.90
36800;DHT22;22752;51.960;5.886;2024-02-23T07:02:09;6.20;99.90
36800;DHT22;22752;51.960;5.886;2024-02-23T07:04:35;6.20;99.90
36800;DHT22;22752;51.960;5.886;2024-02-23T07:07:01;6.20;99.90
36800;DHT22;22752;51.960;5.886;2024-02-23T07:09:33;6.30;99.90
36800;DHT22;22752;51.960;5.886;2024-02-23T07:11:58;6.30;99.90
36800;DHT22;22752;51.960;5.886;2024-02-23T07:14:24;6.30;99.90
36800;DHT22;22752;51.960;5.886;2024-02-23T07:16:50;6.40;99.90
36800;DHT22;22752;51.960;5.886;2024-02-23T07:19:17;6.40;99.90
36800;DHT22;22752;51.960;5.886;2024-02-23T07:21:42;6.40;99.90
36800;DHT22;22752;51.960;5.886;2024-02-23T07:24:08;6.50;99.90
36800;DHT22;22752;51.960;5.886;2024-02-23T07:26:34;6.50;99.90
36800;DHT22;22752;51.960;5.886;2024-02-23T07:29:00;6.50;99.90
36800;DHT22;22752;51.960;5.886;2024-02-23T07:31:25;6.60;99.90
36800;DHT22;22752;51.960;5.886;2024-02-23T07:33:51;6.60;99.90
36800;DHT22;22752;51.960;5.886;2024-02-23T07:36:17;6.60;99.90
36800;DHT22;22752;51.960;5.886;2024-02-23T07:38:43;6.60;99.90
36800;DHT22;22752;51.960;5.886;2024-02-23T07:41:10;6.60;99.90
36800;DHT22;22752;51.960;5.886;2024-02-23T07:43:36;6.70;99.90
36800;DHT22;22752;51.960;5.886;2024-02-23T07:46:02;6.70;99.90
36800;DHT22;22752;51.960;5.886;2024-02-23T07:48:28;6.70;99.90
36800;DHT22;22752;51.960;5.886;2024-02-23T07:50:53;6.70;99.90
36800;DHT22;22752;51.960;5.886;2024-02-23T07:53:19;6.80;99.90
36800;DHT22;22752;51.960;5.886;2024-02-23T07:55:45;6.80;99.90
36800;DHT22;22752;51.960;5.886;2024-02-23T07:58:10;6.80;99.90
36800;DHT22;22752;51.960;5.886;2024-02-23T08:00:36;6.90;99.90
36800;DHT22;22752;51.960;5.886;2024-02-23T08:03:04;6.90;99.90
36800;DHT22;22752;51.960;5.886;2024-02-23T08:05:30;7.00;99.90
36800;DHT22;22752;51.960;5.886;2024-02-23T08:07:55;7.00;99.90
36800;DHT22;22752;51.960;5.886;2024-02-23T08:10:21;7.10;99.90
36800;DHT22;22752;51.960;5.886;2024-02-23T08:12:47;7.10;99.90
36800;DHT22;22752;51.960;5.886;2024-02-23T08:15:12;7.30;99.90
36800;DHT22;22752;51.960;5.886;2024-02-23T08:17:38;7.40;99.90
36800;DHT22;22752;51.960;5.886;2024-02-23T08:20:04;7.40;99.90
36800;DHT22;22752;51.960;5.886;2024-02-23T08:22:30;7.50;99.90
36800;DHT22;22752;51.960;5.886;2024-02-23T08:24:56;7.40;99.90
36800;DHT22;22752;51.960;5.886;2024-02-23T08:27:22;7.40;99.90
36800;DHT22;22752;51.960;5.886;2024-02-23T08:29:48;7.40;99.90
36800;DHT22;22752;51.960;5.886;2024-02-23T08:32:14;7.40;99.90
36800;DHT22;22752;51.960;5.886;2024-02-23T08:34:39;7.40;99.90
36800;DHT22;22752;51.960;5.886;2024-02-23T08:37:05;7.40;99.90
36800;DHT22;22752;51.960;5.886;2024-02-23T08:39:31;7.40;99.90
36800;DHT22;22752;51.960;5.886;2024-02-23T08:41:56;7.50;99.90
36800;DHT22;22752;51.960;5.886;2024-02-23T08:44:22;7.60;99.90
36800;DHT22;22752;51.960;5.886;2024-02-23T08:46:48;7.60;99.90
36800;DHT22;22752;51.960;5.886;2024-02-23T08:49:14;7.70;99.90
36800;DHT22;22752;51.960;5.886;2024-02-23T08:51:40;7.70;99.90
36800;DHT22;22752;51.960;5.886;2024-02-23T08:54:06;7.80;99.90
36800;DHT22;22752;51.960;5.886;2024-02-23T08:56:37;8.00;99.90
36800;DHT22;22752;51.960;5.886;2024-02-23T08:59:04;8.20;99.90
36800;DHT22;22752;51.960;5.886;2024-02-23T09:01:30;8.20;99.90
36800;DHT22;22752;51.960;5.886;2024-02-23T09:03:56;8.10;99.90
36800;DHT22;22752;51.960;5.886;2024-02-23T09:06:21;8.10;99.90
36800;DHT22;22752;51.960;5.886;2024-02-23T09:08:47;8.10;99.90
36800;DHT22;22752;51.960;5.886;2024-02-23T09:11:13;8.00;99.90
36800;DHT22;22752;51.960;5.886;2024-02-23T09:13:40;8.00;99.90
36800;DHT22;22752;51.960;5.886;2024-02-23T09:16:07;8.10;99.90
36800;DHT22;22752;51.960;5.886;2024-02-23T09:18:34;8.00;99.90
36800;DHT22;22752;51.960;5.886;2024-02-23T09:21:00;8.00;99.90
36800;DHT22;22752;51.960;5.886;2024-02-23T09:23:26;8.00;99.90
36800;DHT22;22752;51.960;5.886;2024-02-23T09:25:52;8.00;99.90
36800;DHT22;22752;51.960;5.886;2024-02-23T09:28:17;8.10;99.90
36800;DHT22;22752;51.960;5.886;2024-02-23T09:30:43;8.10;99.90
36800;DHT22;22752;51.960;5.886;2024-02-23T09:33:09;8.00;99.90
36800;DHT22;22752;51.960;5.886;2024-02-23T09:35:34;8.00;99.90
36800;DHT22;22752;51.960;5.886;2024-02-23T09:38:00;7.90;99.90
36800;DHT22;22752;51.960;5.886;2024-02-23T09:40:26;7.90;99.90
36800;DHT22;22752;51.960;5.886;2024-02-23T09:42:58;7.90;99.90
36800;DHT22;22752;51.960;5.886;2024-02-23T09:45:25;7.90;99.90
36800;DHT22;22752;51.960;5.886;2024-02-23T09:47:53;7.80;99.90
36800;DHT22;22752;51.960;5.886;2024-02-23T09:50:21;7.90;99.90
36800;DHT22;22752;51.960;5.886;2024-02-23T09:52:47;8.00;99.90
36800;DHT22;22752;51.960;5.886;2024-02-23T09:55:16;8.10;99.90
36800;DHT22;22752;51.960;5.886;2024-02-23T09:57:42;8.20;99.90
36800;DHT22;22752;51.960;5.886;2024-02-23T10:00:09;8.20;99.90
36800;DHT22;22752;51.960;5.886;2024-02-23T10:02:36;8.30;99.90
36800;DHT22;22752;51.960;5.886;2024-02-23T10:05:02;8.30;99.90
36800;DHT22;22752;51.960;5.886;2024-02-23T10:07:28;8.30;99.90
36800;DHT22;22752;51.960;5.886;2024-02-23T10:09:54;8.30;99.90
36800;DHT22;22752;51.960;5.886;2024-02-23T10:12:21;8.50;99.90
36800;DHT22;22752;51.960;5.886;2024-02-23T10:14:46;8.50;99.90
36800;DHT22;22752;51.960;5.886;2024-02-23T10:17:12;8.60;99.90
36800;DHT22;22752;51.960;5.886;2024-02-23T10:19:38;8.60;99.90
36800;DHT22;22752;51.960;5.886;2024-02-23T10:22:04;8.50;99.90
36800;DHT22;22752;51.960;5.886;2024-02-23T10:24:30;8.40;99.90
36800;DHT22;22752;51.960;5.886;2024-02-23T10:26:56;8.30;99.90
36800;DHT22;22752;51.960;5.886;2024-02-23T10:29:23;8.30;99.90
36800;DHT22;22752;51.960;5.886;2024-02-23T10:31:48;8.30;99.90
36800;DHT22;22752;51.960;5.886;2024-02-23T10:34:19;8.30;99.90
36800;DHT22;22752;51.960;5.886;2024-02-23T10:36:46;8.20;99.90
36800;DHT22;22752;51.960;5.886;2024-02-23T10:39:16;8.20;99.90
36800;DHT22;22752;51.960;5.886;2024-02-23T10:41:47;8.10;99.90
36800;DHT22;22752;51.960;5.886;2024-02-23T10:44:16;8.10;99.90
36800;DHT22;22752;51.960;5.886;2024-02-23T10:46:42;8.10;99.90
36800;DHT22;22752;51.960;5.886;2024-02-23T10:49:10;8.10;99.90
36800;DHT22;22752;51.960;5.886;2024-02-23T10:51:37;8.30;99.90
36800;DHT22;22752;51.960;5.886;2024-02-23T10:54:06;8.40;99.90
36800;DHT22;22752;51.960;5.886;2024-02-23T10:56:31;8.60;99.90
36800;DHT22;22752;51.960;5.886;2024-02-23T10:58:57;8.60;99.90
36800;DHT22;22752;51.960;5.886;2024-02-23T11:01:23;8.60;99.90
36800;DHT22;22752;51.960;5.886;2024-02-23T11:03:51;8.60;99.90
36800;DHT22;22752;51.960;5.886;2024-02-23T11:06:17;8.70;99.90
36800;DHT22;22752;51.960;5.886;2024-02-23T11:08:47;8.60;99.90
36800;DHT22;22752;51.960;5.886;2024-02-23T11:11:16;8.60;99.90
36800;DHT22;22752;51.960;5.886;2024-02-23T11:13:45;8.50;99.90
36800;DHT22;22752;51.960;5.886;2024-02-23T11:16:21;8.50;99.90
36800;DHT22;22752;51.960;5.886;2024-02-23T11:18:47;8.50;99.90
36800;DHT22;22752;51.960;5.886;2024-02-23T11:21:13;8.50;99.90
36800;DHT22;22752;51.960;5.886;2024-02-23T11:23:43;8.50;99.90
36800;DHT22;22752;51.960;5.886;2024-02-23T11:26:10;8.50;99.90
36800;DHT22;22752;51.960;5.886;2024-02-23T11:28:49;8.50;99.90
36800;DHT22;22752;51.960;5.886;2024-02-23T11:31:21;8.50;99.90
36800;DHT22;22752;51.960;5.886;2024-02-23T11:33:54;8.50;99.90
36800;DHT22;22752;51.960;5.886;2024-02-23T11:36:24;8.60;99.90
36800;DHT22;22752;51.960;5.886;2024-02-23T11:38:53;8.60;99.90
36800;DHT22;22752;51.960;5.886;2024-02-23T11:41:22;8.60;99.90
36800;DHT22;22752;51.960;5.886;2024-02-23T11:43:52;8.60;99.90
36800;DHT22;22752;51.960;5.886;2024-02-23T11:46:19;8.60;99.90
36800;DHT22;22752;51.960;5.886;2024-02-23T11:48:45;8.70;99.90
36800;DHT22;22752;51.960;5.886;2024-02-23T11:51:20;8.70;99.90
36800;DHT22;22752;51.960;5.886;2024-02-23T11:53:49;8.70;99.90
36800;DHT22;22752;51.960;5.886;2024-02-23T11:56:15;8.80;99.90
36800;DHT22;22752;51.960;5.886;2024-02-23T11:58:41;8.80;99.90
36800;DHT22;22752;51.960;5.886;2024-02-23T12:01:07;8.80;99.90
36800;DHT22;22752;51.960;5.886;2024-02-23T12:03:33;8.90;99.90
36800;DHT22;22752;51.960;5.886;2024-02-23T12:06:02;8.80;99.90
36800;DHT22;22752;51.960;5.886;2024-02-23T12:08:30;8.80;99.90
36800;DHT22;22752;51.960;5.886;2024-02-23T12:10:58;8.80;99.90
36800;DHT22;22752;51.960;5.886;2024-02-23T12:13:26;8.70;99.90
36800;DHT22;22752;51.960;5.886;2024-02-23T12:15:53;8.60;99.90
36800;DHT22;22752;51.960;5.886;2024-02-23T12:18:24;8.60;99.90
36800;DHT22;22752;51.960;5.886;2024-02-23T12:20:53;8.60;99.90
36800;DHT22;22752;51.960;5.886;2024-02-23T12:23:18;8.60;99.90
36800;DHT22;22752;51.960;5.886;2024-02-23T12:25:56;8.60;99.90
36800;DHT22;22752;51.960;5.886;2024-02-23T12:28:23;8.60;99.90
36800;DHT22;22752;51.960;5.886;2024-02-23T12:31:02;8.60;99.90
36800;DHT22;22752;51.960;5.886;2024-02-23T12:33:29;8.60;99.90
36800;DHT22;22752;51.960;5.886;2024-02-23T12:35:56;8.60;99.90
36800;DHT22;22752;51.960;5.886;2024-02-23T12:38:23;8.60;99.90
36800;DHT22;22752;51.960;5.886;2024-02-23T12:40:49;8.70;99.90
36800;DHT22;22752;51.960;5.886;2024-02-23T12:43:15;8.80;99.90
36800;DHT22;22752;51.960;5.886;2024-02-23T12:45:40;8.80;99.90
36800;DHT22;22752;51.960;5.886;2024-02-23T12:48:06;9.00;99.90
36800;DHT22;22752;51.960;5.886;2024-02-23T12:50:32;9.00;99.90
36800;DHT22;22752;51.960;5.886;2024-02-23T12:52:58;9.10;99.90
36800;DHT22;22752;51.960;5.886;2024-02-23T12:55:24;9.10;99.90
36800;DHT22;22752;51.960;5.886;2024-02-23T12:57:49;9.20;99.90
36800;DHT22;22752;51.960;5.886;2024-02-23T13:00:15;9.30;99.90
36800;DHT22;22752;51.960;5.886;2024-02-23T13:02:41;9.30;99.90
36800;DHT22;22752;51.960;5.886;2024-02-23T13:05:07;9.30;99.90
36800;DHT22;22752;51.960;5.886;2024-02-23T13:07:33;9.20;99.90
36800;DHT22;22752;51.960;5.886;2024-02-23T13:09:59;9.20;99.90
36800;DHT22;22752;51.960;5.886;2024-02-23T13:12:24;9.20;99.90
36800;DHT22;22752;51.960;5.886;2024-02-23T13:14:53;9.20;99.90
36800;DHT22;22752;51.960;5.886;2024-02-23T13:17:18;9.20;99.90
36800;DHT22;22752;51.960;5.886;2024-02-23T13:19:44;9.20;99.90
36800;DHT22;22752;51.960;5.886;2024-02-23T13:22:10;9.30;99.90
36800;DHT22;22752;51.960;5.886;2024-02-23T13:24:35;9.50;99.90
36800;DHT22;22752;51.960;5.886;2024-02-23T13:27:01;9.80;99.90
36800;DHT22;22752;51.960;5.886;2024-02-23T13:29:27;9.90;99.90
36800;DHT22;22752;51.960;5.886;2024-02-23T13:31:53;10.20;99.90
36800;DHT22;22752;51.960;5.886;2024-02-23T13:34:19;10.30;99.90
36800;DHT22;22752;51.960;5.886;2024-02-23T13:36:44;10.20;99.90
36800;DHT22;22752;51.960;5.886;2024-02-23T13:39:10;10.10;99.90
36800;DHT22;22752;51.960;5.886;2024-02-23T13:41:36;10.00;99.90
36800;DHT22;22752;51.960;5.886;2024-02-23T13:44:01;10.00;99.90
36800;DHT22;22752;51.960;5.886;2024-02-23T13:46:27;9.90;99.90
36800;DHT22;22752;51.960;5.886;2024-02-23T13:49:03;9.90;99.90
36800;DHT22;22752;51.960;5.886;2024-02-23T13:51:29;10.10;99.90
36800;DHT22;22752;51.960;5.886;2024-02-23T13:53:55;10.10;99.90
36800;DHT22;22752;51.960;5.886;2024-02-23T13:56:21;10.10;99.90
36800;DHT22;22752;51.960;5.886;2024-02-23T13:58:46;10.10;99.90
36800;DHT22;22752;51.960;5.886;2024-02-23T14:01:13;10.10;99.90
36800;DHT22;22752;51.960;5.886;2024-02-23T14:03:39;10.20;99.90
36800;DHT22;22752;51.960;5.886;2024-02-23T14:06:05;10.20;99.90
36800;DHT22;22752;51.960;5.886;2024-02-23T14:08:30;10.40;99.90
36800;DHT22;22752;51.960;5.886;2024-02-23T14:10:59;10.50;99.90
36800;DHT22;22752;51.960;5.886;2024-02-23T14:13:25;10.60;99.90
36800;DHT22;22752;51.960;5.886;2024-02-23T14:15:51;10.60;99.90
36800;DHT22;22752;51.960;5.886;2024-02-23T14:18:16;10.70;99.90
36800;DHT22;22752;51.960;5.886;2024-02-23T14:20:42;10.70;99.90
36800;DHT22;22752;51.960;5.886;2024-02-23T14:23:08;10.70;99.90
36800;DHT22;22752;51.960;5.886;2024-02-23T14:25:33;10.60;99.90
36800;DHT22;22752;51.960;5.886;2024-02-23T14:27:59;10.60;99.90
36800;DHT22;22752;51.960;5.886;2024-02-23T14:30:25;10.50;99.90
36800;DHT22;22752;51.960;5.886;2024-02-23T14:32:51;10.50;99.90
36800;DHT22;22752;51.960;5.886;2024-02-23T14:35:16;10.40;99.90
36800;DHT22;22752;51.960;5.886;2024-02-23T14:37:42;10.30;99.90
36800;DHT22;22752;51.960;5.886;2024-02-23T14:40:08;10.20;99.90
36800;DHT22;22752;51.960;5.886;2024-02-23T14:42:34;10.10;99.90
36800;DHT22;22752;51.960;5.886;2024-02-23T14:45:00;10.00;99.90
36800;DHT22;22752;51.960;5.886;2024-02-23T14:47:25;9.90;99.90
36800;DHT22;22752;51.960;5.886;2024-02-23T14:49:51;9.90;99.90
36800;DHT22;22752;51.960;5.886;2024-02-23T14:52:17;9.90;99.90
36800;DHT22;22752;51.960;5.886;2024-02-23T14:54:42;9.90;99.90
36800;DHT22;22752;51.960;5.886;2024-02-23T14:57:08;9.80;99.90
36800;DHT22;22752;51.960;5.886;2024-02-23T14:59:33;9.70;99.90
36800;DHT22;22752;51.960;5.886;2024-02-23T15:02:02;9.50;99.90
36800;DHT22;22752;51.960;5.886;2024-02-23T15:04:27;9.50;99.90
36800;DHT22;22752;51.960;5.886;2024-02-23T15:06:53;9.50;99.90
36800;DHT22;22752;51.960;5.886;2024-02-23T15:09:19;9.50;99.90
36800;DHT22;22752;51.960;5.886;2024-02-23T15:11:44;9.50;99.90
36800;DHT22;22752;51.960;5.886;2024-02-23T15:14:10;9.40;99.90
36800;DHT22;22752;51.960;5.886;2024-02-23T15:16:36;9.30;99.90
36800;DHT22;22752;51.960;5.886;2024-02-23T15:19:02;9.30;99.90
36800;DHT22;22752;51.960;5.886;2024-02-23T15:21:28;9.20;99.90
36800;DHT22;22752;51.960;5.886;2024-02-23T15:23:53;9.20;99.90
36800;DHT22;22752;51.960;5.886;2024-02-23T15:26:19;9.20;99.90
36800;DHT22;22752;51.960;5.886;2024-02-23T15:28:45;9.20;99.90
36800;DHT22;22752;51.960;5.886;2024-02-23T15:31:14;9.10;99.90
36800;DHT22;22752;51.960;5.886;2024-02-23T15:33:39;9.10;99.90
36800;DHT22;22752;51.960;5.886;2024-02-23T15:36:06;9.10;99.90
36800;DHT22;22752;51.960;5.886;2024-02-23T15:38:34;9.10;99.90